Time;durP1;ratioP1;P1;durP2;ratioP2;P2;SDS_P1;SDS_P2;PMS_P1;PMS_P2;Temp;Humidity;BMP_temperature;BMP_pressure;BME280_temperature;BME280_humidity;BME280_pressure;Samples;Min_cycle;Max_cycle;Signal;HPM_P1;HPM_P2
2023/11/18 00:00:36;;;;;;;;;;;;;;;23.68;36.04;102024.53;4198990;28;20303;-71
2023/11/18 00:02:38;;;;;;;;;;;;;;;23.70;35.58;102028.84;4199114;28;19924;-71
2023/11/18 00:04:40;;;;;;;;;;;;;;;23.73;36.02;102020.56;4198829;28;19925;-71
2023/11/18 00:06:43;;;;;;;;;;;;;;;23.75;35.65;102009.72;4198815;28;19924;-71
2023/11/18 00:08:45;;;;;;;;;;;;;;;23.77;35.67;102018.53;4198887;28;19924;-71
2023/11/18 00:10:47;;;;;;;;;;;;;;;23.78;35.64;102017.56;4199197;28;20303;-71
2023/11/18 00:12:48;;;;;;;;;;;;;;;23.77;35.59;102016.69;4198576;28;19950;-69
2023/11/18 00:14:50;;;;;;;;;;;;;;;23.76;35.82;102020.34;4198728;28;19963;-69
2023/11/18 00:16:52;;;;;;;;;;;;;;;23.65;35.70;102006.81;4198894;28;19947;-70
2023/11/18 00:18:53;;;;;;;;;;;;;;;23.74;35.67;102034.84;4199070;28;19930;-70
2023/11/18 00:20:57;;;;;;;;;;;;;;;23.74;35.98;102034.84;4198786;28;19925;-71
2023/11/18 00:22:58;;;;;;;;;;;;;;;23.74;35.71;102040.22;4198677;28;19920;-71
2023/11/18 00:25:00;;;;;;;;;;;;;;;23.77;35.65;102038.19;4198845;28;19928;-70
2023/11/18 00:27:05;;;;;;;;;;;;;;;23.78;35.65;102041.75;4198469;28;20315;-70
2023/11/18 00:29:08;;;;;;;;;;;;;;;23.81;35.64;102043.34;4198473;28;19920;-70
2023/11/18 00:31:10;;;;;;;;;;;;;;;23.81;35.86;102037.97;4198784;28;20007;-71
2023/11/18 00:33:11;;;;;;;;;;;;;;;23.82;35.72;102043.22;4198667;28;19931;-71
2023/11/18 00:35:13;;;;;;;;;;;;;;;23.82;35.58;102037.88;4198579;28;19974;-71
2023/11/18 00:37:14;;;;;;;;;;;;;;;23.82;35.93;102031.66;4198371;28;20359;-70
2023/11/18 00:39:16;;;;;;;;;;;;;;;23.81;35.80;102036.13;4198517;28;19920;-69
2023/11/18 00:41:17;;;;;;;;;;;;;;;23.79;35.89;102038.06;4198387;28;20045;-70
2023/11/18 00:43:19;;;;;;;;;;;;;;;23.79;35.80;102026.47;4198580;28;20333;-71
2023/11/18 00:45:21;;;;;;;;;;;;;;;23.80;36.10;102017.44;4198287;28;19920;-71
2023/11/18 00:47:23;;;;;;;;;;;;;;;23.81;35.91;102019.19;4198215;28;19993;-71
2023/11/18 00:49:25;;;;;;;;;;;;;;;23.83;36.02;102014.53;4197403;28;19920;-71
2023/11/18 00:51:27;;;;;;;;;;;;;;;23.85;36.03;102013.47;4197834;28;19968;-71
2023/11/18 00:53:29;;;;;;;;;;;;;;;23.85;35.78;102020.66;4197063;28;19997;-71
2023/11/18 00:55:31;;;;;;;;;;;;;;;23.86;35.55;102011.63;4198388;28;20014;-71
2023/11/18 00:57:33;;;;;;;;;;;;;;;23.86;36.07;102000.88;4197836;28;20010;-71
2023/11/18 00:59:35;;;;;;;;;;;;;;;23.86;35.93;102007.09;4198198;28;19927;-71
2023/11/18 01:01:36;;;;;;;;;;;;;;;23.84;35.68;101992.94;4197863;28;19934;-71
2023/11/18 01:03:38;;;;;;;;;;;;;;;23.85;35.71;102002.72;4198146;28;20391;-70
2023/11/18 01:05:40;;;;;;;;;;;;;;;23.84;36.00;102000.13;4198007;28;19921;-72
2023/11/18 01:07:43;;;;;;;;;;;;;;;23.84;35.77;101994.75;4197859;28;19924;-73
2023/11/18 01:09:45;;;;;;;;;;;;;;;23.87;35.88;101994.56;4197889;28;19927;-69
2023/11/18 01:11:47;;;;;;;;;;;;;;;23.88;35.92;101991.75;4197571;28;19921;-71
2023/11/18 01:14:08;;;;;;;;;;;;;;;23.91;35.84;101990.66;4198177;28;20313;-71
2023/11/18 01:16:11;;;;;;;;;;;;;;;23.91;35.71;101982.59;4197688;28;20364;-71
2023/11/18 01:18:12;;;;;;;;;;;;;;;23.91;35.83;101983.47;4197655;28;20379;-71
2023/11/18 01:20:20;;;;;;;;;;;;;;;23.91;36.13;101983.47;4196575;28;20361;-71
2023/11/18 01:22:22;;;;;;;;;;;;;;;23.91;35.79;101982.59;4197676;28;20485;-71
2023/11/18 01:24:23;;;;;;;;;;;;;;;23.89;35.97;101980.03;4197700;28;19935;-71
2023/11/18 01:26:25;;;;;;;;;;;;;;;23.88;36.09;101972.94;4197219;28;19920;-72
2023/11/18 01:28:29;;;;;;;;;;;;;;;23.88;36.14;101972.94;4196448;28;20023;-71
2023/11/18 01:30:30;;;;;;;;;;;;;;;23.89;36.13;101971.09;4197504;28;20435;-71
2023/11/18 01:32:32;;;;;;;;;;;;;;;23.91;36.13;101966.47;4197656;28;20310;-71
2023/11/18 01:34:40;;;;;;;;;;;;;;;23.94;35.69;101969.00;4197409;28;19928;-71
2023/11/18 01:36:43;;;;;;;;;;;;;;;23.96;35.86;101974.25;4196154;28;20446;-72
2023/11/18 01:38:46;;;;;;;;;;;;;;;23.96;36.08;101972.41;4197485;28;19924;-72
2023/11/18 01:40:48;;;;;;;;;;;;;;;23.96;35.87;101968.88;4197210;28;19921;-72
2023/11/18 01:42:49;;;;;;;;;;;;;;;23.96;35.96;101964.34;4197341;28;20383;-72
2023/11/18 01:44:51;;;;;;;;;;;;;;;23.97;36.19;101963.38;4197377;28;19924;-72
2023/11/18 01:46:53;;;;;;;;;;;;;;;23.96;35.94;101950.06;4185927;28;19971;-72
2023/11/18 01:48:55;;;;;;;;;;;;;;;23.95;35.79;101942.97;4181213;28;19920;-72
2023/11/18 01:50:58;;;;;;;;;;;;;;;23.93;35.80;101937.72;4180626;28;19921;-73
2023/11/18 01:53:00;;;;;;;;;;;;;;;23.94;35.91;101936.75;4180799;28;19966;-70
2023/11/18 01:55:06;;;;;;;;;;;;;;;23.95;36.26;101934.91;4180473;28;20535;-70
2023/11/18 01:57:09;;;;;;;;;;;;;;;23.98;36.14;101934.69;4180708;28;19999;-70
2023/11/18 01:59:17;;;;;;;;;;;;;;;23.99;36.11;101931.88;4180808;28;20035;-70
2023/11/18 02:01:20;;;;;;;;;;;;;;;24.00;36.07;101932.72;4180563;28;19956;-71
2023/11/18 02:03:21;;;;;;;;;;;;;;;24.00;35.92;101936.28;4180680;28;19921;-70
2023/11/18 02:05:23;;;;;;;;;;;;;;;23.99;35.89;101937.25;4180530;28;19925;-70
2023/11/18 02:07:25;;;;;;;;;;;;;;;24.00;35.97;101949.72;4180620;28;19966;-70
2023/11/18 02:09:30;;;;;;;;;;;;;;;24.00;35.79;101943.47;4180292;28;19960;-71
2023/11/18 02:11:41;;;;;;;;;;;;;;;23.98;36.10;101932.84;4180626;28;19983;-70
2023/11/18 02:13:46;;;;;;;;;;;;;;;23.97;35.99;101927.59;4180445;28;19969;-69
2023/11/18 02:15:47;;;;;;;;;;;;;;;23.95;36.29;101933.09;4180463;28;19921;-71
2023/11/18 02:17:50;;;;;;;;;;;;;;;23.97;35.94;101941.03;4180422;28;19986;-71
2023/11/18 02:19:52;;;;;;;;;;;;;;;23.97;36.15;101936.50;4180493;28;19990;-72
2023/11/18 02:21:56;;;;;;;;;;;;;;;23.99;35.85;101939.09;4180594;28;19932;-72
2023/11/18 02:23:58;;;;;;;;;;;;;;;24.01;35.97;101946.06;4180117;28;20335;-72
2023/11/18 02:26:01;;;;;;;;;;;;;;;24.01;35.92;101935.31;4180683;28;19920;-71
2023/11/18 02:28:03;;;;;;;;;;;;;;;24.02;35.97;101925.44;4180471;28;19925;-72
2023/11/18 02:30:06;;;;;;;;;;;;;;;24.02;36.14;101942.44;4180316;28;19920;-72
2023/11/18 02:32:15;;;;;;;;;;;;;;;24.03;35.77;101943.28;4180512;28;19928;-73
2023/11/18 02:34:20;;;;;;;;;;;;;;;24.00;35.81;101952.41;4180408;28;19993;-71
2023/11/18 02:36:36;;;;;;;;;;;;;;;23.99;35.80;101949.84;4178986;28;19927;-69
2023/11/18 02:38:41;;;;;;;;;;;;;;;23.99;36.10;101958.75;4179925;28;19924;-70
2023/11/18 02:40:43;;;;;;;;;;;;;;;23.98;36.18;101962.41;4179268;28;19924;-70
2023/11/18 02:42:48;;;;;;;;;;;;;;;24.00;36.16;101957.78;4180420;28;19921;-70
2023/11/18 02:44:58;;;;;;;;;;;;;;;24.02;36.16;101969.28;4180484;28;20003;-71
2023/11/18 02:47:01;;;;;;;;;;;;;;;24.05;36.07;101963.69;4192620;28;19920;-71
2023/11/18 02:49:03;;;;;;;;;;;;;;;24.04;36.08;101964.66;4196948;28;19924;-71
2023/11/18 02:51:07;;;;;;;;;;;;;;;24.05;35.84;101963.69;4196572;28;19970;-71
2023/11/18 02:53:09;;;;;;;;;;;;;;;24.05;36.07;101952.09;4195189;28;19986;-71
2023/11/18 02:55:11;;;;;;;;;;;;;;;24.06;35.82;101953.81;4196841;28;19927;-72
2023/11/18 02:57:14;;;;;;;;;;;;;;;24.04;35.94;101947.69;4196726;28;19931;-71
2023/11/18 02:59:18;;;;;;;;;;;;;;;24.03;35.92;101952.19;4196943;28;19928;-72
2023/11/18 03:01:19;;;;;;;;;;;;;;;24.03;35.77;101949.50;4196685;28;20007;-71
2023/11/18 03:03:21;;;;;;;;;;;;;;;24.01;35.88;101946.06;4196579;28;20208;-71
2023/11/18 03:05:26;;;;;;;;;;;;;;;24.02;35.80;101936.19;4196781;28;20026;-72
2023/11/18 03:07:27;;;;;;;;;;;;;;;24.04;36.22;101924.34;4196418;28;19920;-71
2023/11/18 03:09:29;;;;;;;;;;;;;;;24.05;35.90;101911.78;4196514;28;19920;-71
2023/11/18 03:11:31;;;;;;;;;;;;;;;24.06;36.18;101911.66;4196899;28;19920;-72
2023/11/18 03:13:35;;;;;;;;;;;;;;;24.06;35.81;101911.66;4199849;28;19920;-72
2023/11/18 03:15:36;;;;;;;;;;;;;;;24.07;36.04;101910.69;4199603;28;19946;-70
2023/11/18 03:17:38;;;;;;;;;;;;;;;24.09;35.82;101905.19;4199589;28;19952;-70
2023/11/18 03:19:41;;;;;;;;;;;;;;;24.07;35.76;101899.94;4199771;28;19920;-70
2023/11/18 03:21:43;;;;;;;;;;;;;;;24.06;35.87;101895.53;4199486;28;20002;-71
2023/11/18 03:23:44;;;;;;;;;;;;;;;24.06;35.88;101892.84;4199709;28;19923;-72
2023/11/18 03:25:46;;;;;;;;;;;;;;;24.06;36.00;101883.94;4199663;28;20015;-71
2023/11/18 03:27:48;;;;;;;;;;;;;;;24.04;35.82;101873.28;4199296;28;19966;-71
2023/11/18 03:29:49;;;;;;;;;;;;;;;24.06;36.04;101871.34;4199696;28;19924;-71
2023/11/18 03:31:54;;;;;;;;;;;;;;;24.08;35.94;101849.72;4199451;28;19982;-71
2023/11/18 03:33:56;;;;;;;;;;;;;;;24.10;35.69;101845.09;4199486;28;19974;-71
2023/11/18 03:35:58;;;;;;;;;;;;;;;24.11;35.95;101827.13;4199088;28;19921;-71
2023/11/18 03:37:59;;;;;;;;;;;;;;;24.10;35.86;101823.59;4199263;28;19959;-71
2023/11/18 03:40:01;;;;;;;;;;;;;;;24.10;36.01;101815.53;4199483;28;20355;-71
2023/11/18 03:42:02;;;;;;;;;;;;;;;24.09;35.79;101814.66;4199362;28;19920;-71
2023/11/18 03:44:04;;;;;;;;;;;;;;;24.09;35.69;101803.91;4199431;28;19946;-71
2023/11/18 03:46:07;;;;;;;;;;;;;;;24.08;36.04;101817.47;4199196;28;19978;-72
2023/11/18 03:48:08;;;;;;;;;;;;;;;24.07;36.16;101815.75;4199288;28;19927;-71
2023/11/18 03:50:12;;;;;;;;;;;;;;;24.06;36.12;101817.59;4198699;28;20010;-71
2023/11/18 03:52:14;;;;;;;;;;;;;;;24.07;36.00;101821.13;4199132;28;19921;-71
2023/11/18 03:54:16;;;;;;;;;;;;;;;24.10;35.87;101826.28;4199377;28;20003;-71
2023/11/18 03:56:20;;;;;;;;;;;;;;;24.11;35.76;101829.81;4198928;28;19920;-71
2023/11/18 03:58:22;;;;;;;;;;;;;;;24.12;35.81;101826.16;4199141;28;19960;-71
2023/11/18 04:00:29;;;;;;;;;;;;;;;24.14;36.11;101829.59;4199173;28;19962;-71
2023/11/18 04:02:30;;;;;;;;;;;;;;;24.13;35.68;101826.03;4198878;28;20300;-71
2023/11/18 04:04:32;;;;;;;;;;;;;;;24.14;35.93;101824.22;4198850;28;20011;-71
2023/11/18 04:06:34;;;;;;;;;;;;;;;24.13;36.03;101826.03;4199044;28;19928;-71
2023/11/18 04:08:35;;;;;;;;;;;;;;;24.13;35.63;101830.56;4199000;28;19960;-72
2023/11/18 04:10:37;;;;;;;;;;;;;;;24.12;35.85;101821.66;4198690;28;19927;-71
2023/11/18 04:12:38;;;;;;;;;;;;;;;24.11;35.71;101817.25;4199010;28;19920;-71
2023/11/18 04:14:40;;;;;;;;;;;;;;;24.11;36.05;101817.25;4199000;28;19924;-71
2023/11/18 04:16:41;;;;;;;;;;;;;;;24.12;35.98;101831.53;4198690;28;19962;-71
2023/11/18 04:18:43;;;;;;;;;;;;;;;24.13;35.64;101822.50;4197713;28;19924;-71
2023/11/18 04:20:45;;;;;;;;;;;;;;;24.15;35.83;101812.50;4198339;28;19920;-72
2023/11/18 04:22:50;;;;;;;;;;;;;;;24.16;35.83;101808.84;4198663;28;19973;-71
2023/11/18 04:24:52;;;;;;;;;;;;;;;24.16;35.66;101804.31;4198798;28;20294;-71
2023/11/18 04:26:55;;;;;;;;;;;;;;;24.15;35.92;101804.44;4198712;28;20116;-71
2023/11/18 04:28:56;;;;;;;;;;;;;;;24.16;35.90;101827.66;4198676;28;20430;-71
2023/11/18 04:30:58;;;;;;;;;;;;;;;24.15;35.65;101824.09;4197684;28;20011;-71
2023/11/18 04:33:00;;;;;;;;;;;;;;;24.15;35.56;101834.84;4198579;28;19973;-71
2023/11/18 04:35:06;;;;;;;;;;;;;;;24.13;35.56;101823.34;4198343;28;19920;-71
2023/11/18 04:37:08;;;;;;;;;;;;;;;24.12;35.57;101818.97;4198380;28;19967;-71
2023/11/18 04:39:15;;;;;;;;;;;;;;;24.13;35.76;101817.13;4198489;28;19920;-72
2023/11/18 04:41:17;;;;;;;;;;;;;;;24.14;35.73;101826.91;4198581;28;19927;-71
2023/11/18 04:43:19;;;;;;;;;;;;;;;24.15;35.79;101824.09;4198611;28;19964;-70
2023/11/18 04:45:35;;;;;;;;;;;;;;;24.16;35.83;101811.53;4198496;28;20248;-71
2023/11/18 04:47:37;;;;;;;;;;;;;;;24.16;35.58;101808.84;4197200;28;20502;-71
2023/11/18 04:49:40;;;;;;;;;;;;;;;24.06;35.81;101797.94;4196565;28;19921;-71
2023/11/18 04:51:42;;;;;;;;;;;;;;;24.17;35.72;101813.22;4197137;28;19920;-71
2023/11/18 04:53:44;;;;;;;;;;;;;;;24.16;35.48;101816.91;4198367;28;19952;-71
2023/11/18 04:55:45;;;;;;;;;;;;;;;24.14;35.59;101808.94;4198283;28;20395;-71
2023/11/18 04:57:47;;;;;;;;;;;;;;;24.13;35.62;101811.75;4198057;28;19924;-72
2023/11/18 04:59:49;;;;;;;;;;;;;;;24.13;35.84;101817.13;4197990;28;19927;-71
2023/11/18 05:01:52;;;;;;;;;;;;;;;24.12;35.96;101815.41;4198365;28;20451;-70
2023/11/18 05:03:54;;;;;;;;;;;;;;;24.14;35.71;101806.25;4197684;28;19928;-70
2023/11/18 05:05:56;;;;;;;;;;;;;;;24.15;35.63;101804.44;4198122;28;20383;-71
2023/11/18 05:07:59;;;;;;;;;;;;;;;24.17;35.96;101807.84;4197988;28;19921;-71
2023/11/18 05:10:01;;;;;;;;;;;;;;;24.17;35.89;101802.47;4198394;28;19920;-71
2023/11/18 05:12:03;;;;;;;;;;;;;;;24.16;35.52;101798.94;4198170;28;19924;-71
2023/11/18 05:14:04;;;;;;;;;;;;;;;24.17;35.54;101800.66;4197936;28;20371;-71
2023/11/18 05:16:06;;;;;;;;;;;;;;;24.17;35.64;101797.09;4197923;28;19927;-71
2023/11/18 05:18:11;;;;;;;;;;;;;;;24.17;35.67;101794.41;4197583;28;19921;-71
2023/11/18 05:20:13;;;;;;;;;;;;;;;24.16;35.76;101793.56;4197842;28;19952;-71
2023/11/18 05:22:15;;;;;;;;;;;;;;;24.14;35.67;101784.75;4197637;28;19978;-71
2023/11/18 05:24:17;;;;;;;;;;;;;;;24.14;35.67;101781.22;4197893;28;19960;-71
2023/11/18 05:26:19;;;;;;;;;;;;;;;24.14;35.78;101774.00;4197662;28;20403;-71
2023/11/18 05:28:21;;;;;;;;;;;;;;;24.17;35.91;101778.28;4197760;28;19920;-71
2023/11/18 05:30:23;;;;;;;;;;;;;;;24.18;35.67;101774.63;4197766;28;19926;-70
2023/11/18 05:32:28;;;;;;;;;;;;;;;24.18;35.91;101770.13;4197450;28;19947;-70
2023/11/18 05:34:30;;;;;;;;;;;;;;;24.20;35.66;101767.31;4197153;28;19973;-71
2023/11/18 05:36:37;;;;;;;;;;;;;;;24.19;35.94;101768.28;4197644;28;19924;-71
2023/11/18 05:38:39;;;;;;;;;;;;;;;24.20;35.90;101767.31;4197593;28;19924;-71
2023/11/18 05:40:43;;;;;;;;;;;;;;;24.20;35.63;101761.94;4197463;28;20322;-71
2023/11/18 05:42:47;;;;;;;;;;;;;;;24.19;36.02;101758.41;4197575;28;19924;-70
2023/11/18 05:44:57;;;;;;;;;;;;;;;24.18;35.63;101756.69;4197527;28;19959;-71
2023/11/18 05:46:59;;;;;;;;;;;;;;;24.16;35.77;101749.72;4197087;28;19963;-70
2023/11/18 05:49:07;;;;;;;;;;;;;;;24.16;36.15;101755.94;4197356;28;19920;-71
2023/11/18 05:51:10;;;;;;;;;;;;;;;24.18;36.13;101751.31;4196724;28;19920;-70
2023/11/18 05:53:11;;;;;;;;;;;;;;;24.18;35.77;101754.00;4196789;28;19924;-69
2023/11/18 05:55:13;;;;;;;;;;;;;;;24.20;35.65;101743.09;4196702;28;19920;-70
2023/11/18 05:57:15;;;;;;;;;;;;;;;24.22;35.65;101735.78;4195612;28;19928;-70
2023/11/18 05:59:17;;;;;;;;;;;;;;;24.21;35.75;101736.75;4196611;28;20010;-70
2023/11/18 06:01:20;;;;;;;;;;;;;;;24.21;35.78;101731.38;4196510;28;19927;-70
2023/11/18 06:03:21;;;;;;;;;;;;;;;24.22;35.74;101727.72;4196834;28;20441;-70
2023/11/18 06:05:26;;;;;;;;;;;;;;;24.21;35.64;101726.00;4195365;28;19920;-71
2023/11/18 06:07:28;;;;;;;;;;;;;;;24.20;35.71;101721.59;4196691;28;19920;-71
2023/11/18 06:09:30;;;;;;;;;;;;;;;24.18;35.65;101716.34;4196579;28;20280;-70
2023/11/18 06:11:31;;;;;;;;;;;;;;;24.17;35.82;101721.84;4196570;28;19934;-70
2023/11/18 06:13:33;;;;;;;;;;;;;;;24.18;35.86;101718.16;4196583;28;20010;-70
2023/11/18 06:15:38;;;;;;;;;;;;;;;24.19;36.00;101723.44;4195836;28;19925;-70
2023/11/18 06:17:40;;;;;;;;;;;;;;;24.21;36.05;101724.16;4196375;28;19920;-70
2023/11/18 06:19:42;;;;;;;;;;;;;;;24.22;35.64;101723.19;4196424;28;19920;-71
2023/11/18 06:21:43;;;;;;;;;;;;;;;24.22;36.09;101706.22;4195303;28;19927;-70
2023/11/18 06:23:47;;;;;;;;;;;;;;;24.21;35.83;101697.28;4196310;28;19925;-70
2023/11/18 06:25:48;;;;;;;;;;;;;;;24.22;35.76;101690.09;4196354;28;19983;-70
2023/11/18 06:27:50;;;;;;;;;;;;;;;24.21;35.75;101681.16;4196320;28;19924;-71
2023/11/18 06:29:54;;;;;;;;;;;;;;;24.22;35.64;101687.41;4195770;28;19965;-71
2023/11/18 06:31:55;;;;;;;;;;;;;;;24.21;36.06;101683.00;4196491;28;19928;-72
2023/11/18 06:33:57;;;;;;;;;;;;;;;24.19;35.70;101677.75;4196254;28;19920;-70
2023/11/18 06:36:00;;;;;;;;;;;;;;;24.19;36.13;101688.50;4195992;28;19924;-70
2023/11/18 06:38:02;;;;;;;;;;;;;;;24.19;36.06;101683.13;4196140;28;19921;-70
2023/11/18 06:40:15;;;;;;;;;;;;;;;24.21;35.78;101691.06;4195990;28;19956;-71
2023/11/18 06:42:17;;;;;;;;;;;;;;;24.22;35.81;101690.09;4196376;28;20019;-70
2023/11/18 06:44:23;;;;;;;;;;;;;;;24.23;35.73;101681.06;4195823;28;20294;-70
2023/11/18 06:46:29;;;;;;;;;;;;;;;24.26;36.10;101671.91;4196139;28;19920;-70
2023/11/18 06:48:31;;;;;;;;;;;;;;;24.24;35.83;101670.19;4199249;28;19966;-70
2023/11/18 06:50:34;;;;;;;;;;;;;;;24.25;35.89;101668.34;4161990;28;1069953;-72
2023/11/18 06:52:41;;;;;;;;;;;;;;;24.24;35.82;101672.00;4200108;28;20311;-71
2023/11/18 06:54:45;;;;;;;;;;;;;;;24.22;35.76;101657.84;4200051;28;20401;-71
2023/11/18 06:56:47;;;;;;;;;;;;;;;24.20;35.75;101660.63;4200236;28;20023;-71
2023/11/18 06:58:48;;;;;;;;;;;;;;;24.19;36.03;101653.56;4199501;28;19920;-71
2023/11/18 07:00:51;;;;;;;;;;;;;;;24.19;35.77;101666.13;4198791;28;20019;-70
2023/11/18 07:02:54;;;;;;;;;;;;;;;24.20;35.96;101662.47;4198724;28;19921;-70
2023/11/18 07:04:55;;;;;;;;;;;;;;;24.22;35.96;101668.59;4199886;28;20522;-70
2023/11/18 07:06:57;;;;;;;;;;;;;;;24.23;35.75;101676.53;4200015;28;19943;-70
2023/11/18 07:09:00;;;;;;;;;;;;;;;24.23;35.87;101671.16;4200029;28;20052;-70
2023/11/18 07:11:02;;;;;;;;;;;;;;;24.22;35.72;101671.28;4200022;28;19952;-70
2023/11/18 07:13:04;;;;;;;;;;;;;;;24.20;35.88;101667.84;4198358;28;20003;-70
2023/11/18 07:15:06;;;;;;;;;;;;;;;24.17;36.07;101663.56;4198556;28;19924;-71
2023/11/18 07:17:08;;;;;;;;;;;;;;;24.16;35.78;101661.00;4199474;28;19926;-71
2023/11/18 07:19:14;;;;;;;;;;;;;;;24.14;35.81;101663.81;4199413;28;19924;-70
2023/11/18 07:21:16;;;;;;;;;;;;;;;24.13;35.87;101659.41;4199765;28;20491;-72
2023/11/18 07:23:18;;;;;;;;;;;;;;;24.12;35.91;101646.97;4199685;28;19924;-71
2023/11/18 07:25:20;;;;;;;;;;;;;;;24.15;35.90;101652.06;4199708;28;20302;-71
2023/11/18 07:27:21;;;;;;;;;;;;;;;24.18;35.75;101646.47;4199237;28;19999;-70
2023/11/18 07:29:23;;;;;;;;;;;;;;;24.18;35.75;101659.91;4199464;28;19920;-70
2023/11/18 07:31:25;;;;;;;;;;;;;;;24.19;35.88;101664.31;4199366;28;19927;-71
2023/11/18 07:33:27;;;;;;;;;;;;;;;24.19;35.83;101666.13;4199480;28;20015;-71
2023/11/18 07:35:29;;;;;;;;;;;;;;;24.18;35.77;101667.09;4199500;28;19927;-71
2023/11/18 07:37:32;;;;;;;;;;;;;;;24.16;35.96;101667.22;4199205;28;19991;-71
2023/11/18 07:39:48;;;;;;;;;;;;;;;24.14;35.91;101662.97;4198857;28;19920;-71
2023/11/18 07:41:50;;;;;;;;;;;;;;;24.12;35.91;101660.41;4198782;28;20027;-70
2023/11/18 07:43:55;;;;;;;;;;;;;;;24.09;36.11;101664.16;4199314;28;20342;-70
2023/11/18 07:45:57;;;;;;;;;;;;;;;24.05;36.29;101660.00;4199021;28;19931;-71
2023/11/18 07:47:58;;;;;;;;;;;;;;;24.06;36.11;101656.34;4199254;28;19943;-70
2023/11/18 07:50:04;;;;;;;;;;;;;;;24.09;36.04;101669.53;4198936;28;19931;-70
2023/11/18 07:52:05;;;;;;;;;;;;;;;24.12;36.27;101673.84;4199207;28;20384;-70
2023/11/18 07:54:08;;;;;;;;;;;;;;;24.12;35.96;101676.53;4199079;28;19924;-71
2023/11/18 07:56:12;;;;;;;;;;;;;;;24.12;35.99;101686.41;4198952;28;20280;-71
2023/11/18 07:58:14;;;;;;;;;;;;;;;24.10;35.92;101673.09;4198465;28;19924;-71
2023/11/18 08:00:15;;;;;;;;;;;;;;;24.09;36.07;101682.97;4198910;28;19927;-71
2023/11/18 08:02:18;;;;;;;;;;;;;;;24.07;36.21;101682.25;4199151;28;19924;-71
2023/11/18 08:04:20;;;;;;;;;;;;;;;24.05;36.03;101670.75;4198888;28;20340;-71
2023/11/18 08:06:26;;;;;;;;;;;;;;;24.03;36.45;101677.22;4199083;28;19952;-71
2023/11/18 08:08:28;;;;;;;;;;;;;;;24.02;36.08;101679.06;4198928;28;19924;-71
2023/11/18 08:10:32;;;;;;;;;;;;;;;24.03;36.45;101680.75;4199059;28;19962;-70
2023/11/18 08:12:34;;;;;;;;;;;;;;;24.05;36.20;101675.28;4198513;28;19920;-71
2023/11/18 08:14:36;;;;;;;;;;;;;;;24.07;36.02;101671.50;4198714;28;19920;-71
2023/11/18 08:16:38;;;;;;;;;;;;;;;24.12;36.05;101681.03;4198772;28;20116;-71
2023/11/18 08:18:39;;;;;;;;;;;;;;;24.12;36.09;101679.22;4198745;28;20383;-71
2023/11/18 08:20:43;;;;;;;;;;;;;;;24.12;35.94;101673.84;4198537;28;19921;-71
2023/11/18 08:22:45;;;;;;;;;;;;;;;24.13;36.36;101664.78;4198851;28;19920;-71
2023/11/18 08:24:47;;;;;;;;;;;;;;;24.13;36.00;101677.38;4198717;28;20011;-71
2023/11/18 08:26:50;;;;;;;;;;;;;;;24.13;36.03;101677.38;4197124;28;20124;-70
2023/11/18 08:28:51;;;;;;;;;;;;;;;24.12;35.88;101659.53;4198705;28;19952;-71
2023/11/18 08:30:53;;;;;;;;;;;;;;;24.10;36.42;101665.03;4198621;28;20295;-72
2023/11/18 08:32:55;;;;;;;;;;;;;;;24.14;36.04;101673.72;4198581;28;20015;-71
2023/11/18 08:34:56;;;;;;;;;;;;;;;24.15;36.34;101657.44;4198642;28;20345;-71
2023/11/18 08:36:59;;;;;;;;;;;;;;;24.17;36.17;101666.25;4198458;28;19990;-71
2023/11/18 08:39:01;;;;;;;;;;;;;;;24.18;36.06;101657.22;4198163;28;19974;-71
2023/11/18 08:41:03;;;;;;;;;;;;;;;24.17;36.02;101651.94;4197725;28;19920;-70
2023/11/18 08:43:07;;;;;;;;;;;;;;;24.16;36.10;101655.63;4198296;28;20007;-70
2023/11/18 08:45:12;;;;;;;;;;;;;;;24.16;36.27;101653.78;4198180;28;20006;-70
2023/11/18 08:47:15;;;;;;;;;;;;;;;24.13;36.06;101650.50;4198152;28;20354;-71
2023/11/18 08:49:21;;;;;;;;;;;;;;;24.11;36.38;101649.75;4198197;28;19920;-70
2023/11/18 08:51:25;;;;;;;;;;;;;;;24.09;36.19;101650.72;4198122;28;19920;-70
2023/11/18 08:53:27;;;;;;;;;;;;;;;24.09;36.17;101641.81;4198233;28;19924;-71
2023/11/18 08:55:39;;;;;;;;;;;;;;;24.11;36.22;101642.56;4198092;28;20298;-70
2023/11/18 08:57:59;;;;;;;;;;;;;;;24.13;36.11;101645.97;4198230;28;19966;-71
2023/11/18 09:00:07;;;;;;;;;;;;;;;24.15;36.37;101638.63;4198157;28;19927;-71
2023/11/18 09:02:14;;;;;;;;;;;;;;;24.17;36.03;101630.44;4198236;28;19974;-72
2023/11/18 09:04:19;;;;;;;;;;;;;;;24.15;36.20;101618.97;4198115;28;20300;-71
2023/11/18 09:06:28;;;;;;;;;;;;;;;24.14;36.29;101618.09;4197952;28;19920;-71
2023/11/18 09:08:35;;;;;;;;;;;;;;;24.14;36.05;101619.97;4198094;28;19985;-70
2023/11/18 09:10:38;;;;;;;;;;;;;;;24.13;36.40;101620.94;4196778;28;19969;-70
2023/11/18 09:12:45;;;;;;;;;;;;;;;24.12;36.22;101621.91;4198010;28;20028;-70
2023/11/18 09:14:47;;;;;;;;;;;;;;;24.11;36.29;101618.38;4197781;28;20303;-71
2023/11/18 09:16:49;;;;;;;;;;;;;;;24.11;36.21;101615.69;4197953;28;19970;-70
2023/11/18 09:18:51;;;;;;;;;;;;;;;24.12;36.51;101619.22;4197860;28;19931;-70
2023/11/18 09:20:54;;;;;;;;;;;;;;;24.16;36.39;101615.31;4197739;28;19928;-70
2023/11/18 09:22:56;;;;;;;;;;;;;;;24.17;36.37;101622.38;4197921;28;20383;-70
2023/11/18 09:24:57;;;;;;;;;;;;;;;24.17;36.06;101615.19;4197361;28;19920;-71
2023/11/18 09:26:59;;;;;;;;;;;;;;;24.20;36.14;101611.41;4197616;28;19932;-71
2023/11/18 09:29:01;;;;;;;;;;;;;;;24.19;36.12;101605.19;4197723;28;19999;-71
2023/11/18 09:31:04;;;;;;;;;;;;;;;24.18;36.21;101595.41;4196549;28;19926;-71
2023/11/18 09:33:13;;;;;;;;;;;;;;;24.17;36.23;101590.13;4197703;28;19920;-71
2023/11/18 09:35:17;;;;;;;;;;;;;;;24.16;36.25;101591.13;4197702;28;19993;-71
2023/11/18 09:37:20;;;;;;;;;;;;;;;24.14;36.27;101585.03;4197465;28;19930;-71
2023/11/18 09:39:37;;;;;;;;;;;;;;;24.06;36.20;101564.97;4196973;28;19955;-71
2023/11/18 09:41:39;;;;;;;;;;;;;;;24.17;36.26;101576.69;4197597;28;20334;-71
2023/11/18 09:43:47;;;;;;;;;;;;;;;24.19;36.25;101575.63;4196502;28;20024;-71
2023/11/18 09:45:54;;;;;;;;;;;;;;;24.20;36.44;101569.25;4197272;28;19976;-70
2023/11/18 09:47:56;;;;;;;;;;;;;;;24.20;36.30;101563.88;4197421;28;19956;-70
2023/11/18 09:49:59;;;;;;;;;;;;;;;24.21;36.41;101559.38;4197122;28;20557;-70
2023/11/18 09:52:04;;;;;;;;;;;;;;;24.21;36.31;101562.88;4197346;28;20008;-69
2023/11/18 09:54:14;;;;;;;;;;;;;;;24.20;36.40;101563.03;4196978;28;20015;-70
2023/11/18 09:56:26;;;;;;;;;;;;;;;24.19;36.30;101558.63;4197235;28;19921;-71
2023/11/18 09:58:33;;;;;;;;;;;;;;;24.17;36.59;101552.50;4197396;28;19920;-71
2023/11/18 10:00:41;;;;;;;;;;;;;;;24.16;36.31;101538.22;4197237;28;19924;-71
2023/11/18 10:02:50;;;;;;;;;;;;;;;24.17;36.34;101537.25;4197433;28;19920;-74
2023/11/18 10:04:58;;;;;;;;;;;;;;;24.17;36.55;101537.25;4197162;28;19955;-71
2023/11/18 10:07:02;;;;;;;;;;;;;;;24.12;36.54;101533.22;4196576;28;20303;-74
2023/11/18 10:09:15;;;;;;;;;;;;;;;24.15;36.29;101525.75;4197234;28;20330;-74
2023/11/18 10:11:16;;;;;;;;;;;;;;;24.17;36.45;101534.56;4197078;28;20014;-73
2023/11/18 10:13:22;;;;;;;;;;;;;;;24.18;36.12;101524.66;4197606;28;19963;-70
2023/11/18 10:15:24;;;;;;;;;;;;;;;24.16;36.53;101514.03;4197085;28;19975;-74
2023/11/18 10:17:31;;;;;;;;;;;;;;;24.16;36.27;101521.25;4196634;28;20345;-74
2023/11/18 10:19:52;;;;;;;;;;;;;;;24.15;36.38;101509.63;4192347;28;20461;-73
2023/11/18 10:21:56;;;;;;;;;;;;;;;24.11;36.41;101513.56;4189303;28;19925;-71
2023/11/18 10:24:00;;;;;;;;;;;;;;;24.12;36.63;101500.97;4190217;28;19928;-71
2023/11/18 10:26:04;;;;;;;;;;;;;;;24.08;36.45;101492.28;4189436;28;19966;-67
2023/11/18 10:28:05;;;;;;;;;;;;;;;24.12;36.40;101487.53;4192137;28;19925;-72
2023/11/18 10:30:18;;;;;;;;;;;;;;;24.15;36.63;101485.44;4178975;28;19924;-73
2023/11/18 10:32:22;;;;;;;;;;;;;;;24.16;36.67;101481.78;4195832;28;20367;-73